createdAt,value
2022-08-18T00:03:56.795Z,23.26
2022-08-18T00:09:03.535Z,23.18
2022-08-18T00:14:05.682Z,23.52
2022-08-18T00:19:09.353Z,23.47
2022-08-18T00:24:11.402Z,23.39
2022-08-18T00:29:12.934Z,23.12
2022-08-18T00:34:14.564Z,23.22
2022-08-18T00:39:16.367Z,23.16
2022-08-18T00:44:17.915Z,22.97
2022-08-18T00:49:19.520Z,22.89
2022-08-18T00:54:24.965Z,22.79
2022-08-18T00:59:31.964Z,22.94
2022-08-18T01:04:44.486Z,22.94
2022-08-18T01:09:50.866Z,22.82
2022-08-18T01:14:52.790Z,22.87
2022-08-18T01:20:13.310Z,22.74
2022-08-18T01:25:35.519Z,22.48
2022-08-18T01:30:50.011Z,22.77
2022-08-18T01:35:51.628Z,22.63
2022-08-18T01:41:25.162Z,22.73
2022-08-18T01:46:20.200Z,22.73
2022-08-18T01:51:38.860Z,22.74
2022-08-18T01:56:43.396Z,22.64
2022-08-18T02:01:50.404Z,22.71
2022-08-18T02:06:56.162Z,22.48
2022-08-18T02:11:59.228Z,22.47
2022-08-18T02:17:02.904Z,22.31
2022-08-18T02:22:06.050Z,22.58
2022-08-18T02:27:09.055Z,22.40
2022-08-18T02:32:10.738Z,22.54
2022-08-18T02:37:15.298Z,22.38
2022-08-18T02:42:17.699Z,22.19
2022-08-18T02:47:20.780Z,21.91
2022-08-18T02:52:22.652Z,22.32
2022-08-18T02:57:24.314Z,22.33
2022-08-18T03:02:25.891Z,22.12
2022-08-18T03:07:27.498Z,21.94
2022-08-18T03:12:29.369Z,21.96
2022-08-18T03:17:31.808Z,22.00
2022-08-18T03:22:34.117Z,21.98
2022-08-18T03:27:35.917Z,22.03
2022-08-18T03:32:37.476Z,21.76
2022-08-18T03:37:39.169Z,21.89
2022-08-18T03:42:40.859Z,21.93
2022-08-18T03:47:42.462Z,21.71
2022-08-18T03:52:48.516Z,21.77
2022-08-18T03:57:52.910Z,21.69
2022-08-18T04:02:54.726Z,21.93
2022-08-18T04:07:57.241Z,22.13
2022-08-18T04:12:58.871Z,22.02
2022-08-18T04:18:04.460Z,21.78
2022-08-18T04:23:06.332Z,21.71
2022-08-18T04:28:07.924Z,21.57
2022-08-18T04:33:09.463Z,22.03
2022-08-18T04:38:11.001Z,22.00
2022-08-18T04:43:15.279Z,21.88
2022-08-18T04:48:17.024Z,22.21
2022-08-18T04:53:37.846Z,22.23
2022-08-18T04:58:39.483Z,22.40
2022-08-18T05:03:50.406Z,22.32
2022-08-18T05:08:54.373Z,22.31
2022-08-18T05:13:57.861Z,22.45
2022-08-18T05:19:03.054Z,22.43
2022-08-18T05:24:09.228Z,22.67
2022-08-18T05:29:19.109Z,22.62
2022-08-18T05:34:21.794Z,22.61
2022-08-18T05:39:53.482Z,22.79
2022-08-18T05:44:55.813Z,22.70
2022-08-18T05:50:03.703Z,22.80
2022-08-18T05:55:28.890Z,23.24
2022-08-18T06:00:31.079Z,23.63
2022-08-18T06:05:36.534Z,23.78
2022-08-18T06:10:40.016Z,24.12
2022-08-18T06:15:59.614Z,24.36
2022-08-18T06:21:38.329Z,24.50
2022-08-18T06:27:07.195Z,24.82
2022-08-18T06:32:30.014Z,25.03
2022-08-18T06:37:58.761Z,25.24
2022-08-18T06:43:02.060Z,25.53
2022-08-18T06:48:16.049Z,25.71
2022-08-18T06:53:27.304Z,25.66
2022-08-18T06:58:30.690Z,25.61
2022-08-18T07:03:35.341Z,25.93
2022-08-18T07:08:41.266Z,26.08
2022-08-18T07:13:44.993Z,26.13
2022-08-18T07:18:46.962Z,26.06
2022-08-18T07:24:23.178Z,26.00
2022-08-18T07:29:20.199Z,26.01
2022-08-18T07:34:37.522Z,26.16
2022-08-18T07:39:49.566Z,26.20
2022-08-18T07:44:59.477Z,26.40
2022-08-18T07:50:36.212Z,26.48
2022-08-18T07:55:35.256Z,26.55
2022-08-18T08:01:10.733Z,26.58
2022-08-18T08:06:30.689Z,26.67
2022-08-18T08:11:55.809Z,26.73
2022-08-18T08:17:23.777Z,26.79
2022-08-18T08:22:52.774Z,26.80
2022-08-18T08:28:09.524Z,26.81
2022-08-18T08:33:21.196Z,26.87
2022-08-18T08:38:46.579Z,27.00
2022-08-18T08:44:14.397Z,27.19
2022-08-18T08:49:38.238Z,27.55
2022-08-18T08:55:02.853Z,27.70
2022-08-18T09:00:07.540Z,27.81
2022-08-18T09:05:13.897Z,27.99
2022-08-18T09:10:24.607Z,27.90
2022-08-18T09:15:26.344Z,27.78
2022-08-18T09:20:49.006Z,27.78
2022-08-18T09:25:55.016Z,27.68
2022-08-18T09:31:08.738Z,27.63
2022-08-18T09:36:28.679Z,27.57
2022-08-18T09:41:36.070Z,27.58
2022-08-18T09:46:43.863Z,27.77
2022-08-18T09:51:45.480Z,27.86
2022-08-18T09:56:54.358Z,27.80
2022-08-18T10:01:57.411Z,28.00
2022-08-18T10:07:43.301Z,28.04
2022-08-18T10:13:29.677Z,28.23
2022-08-18T10:18:58.271Z,28.35
2022-08-18T10:24:35.329Z,28.35
2022-08-18T10:29:48.464Z,28.32
2022-08-18T10:34:58.292Z,28.17
2022-08-18T10:40:04.454Z,28.22
2022-08-18T10:45:16.034Z,28.14
2022-08-18T10:50:26.513Z,28.24
2022-08-18T10:55:48.706Z,28.17
2022-08-18T11:01:07.270Z,28.15
2022-08-18T11:06:18.059Z,28.15
2022-08-18T11:11:37.274Z,28.12
2022-08-18T11:16:42.361Z,27.99
2022-08-18T11:21:51.406Z,27.98
2022-08-18T11:26:59.515Z,28.08
2022-08-18T11:32:25.392Z,28.19
2022-08-18T11:37:51.321Z,28.12
2022-08-18T11:43:01.479Z,28.05
2022-08-18T11:48:46.399Z,27.95
2022-08-18T11:59:52.430Z,27.72
2022-08-18T12:04:57.545Z,27.62
2022-08-18T12:10:19.269Z,27.52
2022-08-18T12:15:29.581Z,27.53
2022-08-18T12:20:49.274Z,27.45
2022-08-18T12:25:52.975Z,27.60
2022-08-18T12:30:56.811Z,27.86
2022-08-18T12:35:59.730Z,27.74
2022-08-18T12:41:01.552Z,27.87
2022-08-18T12:46:04.841Z,27.95
2022-08-18T12:51:07.352Z,27.89
2022-08-18T12:56:22.744Z,28.27
2022-08-18T13:01:27.115Z,28.37
2022-08-18T13:06:28.818Z,28.29
2022-08-18T13:11:30.420Z,28.43
2022-08-18T13:16:38.768Z,28.42
2022-08-18T13:21:57.072Z,28.42
2022-08-18T13:26:58.856Z,28.36
2022-08-18T13:32:00.712Z,28.34
2022-08-18T13:37:02.434Z,28.41
2022-08-18T13:42:26.750Z,28.50
2022-08-18T13:47:28.485Z,28.54
2022-08-18T13:52:35.577Z,28.59
2022-08-18T13:57:40.218Z,28.59
2022-08-18T14:02:41.926Z,28.58
2022-08-18T14:07:46.179Z,28.42
2022-08-18T14:12:47.833Z,28.23
2022-08-18T14:17:51.514Z,28.38
2022-08-18T14:23:14.220Z,28.38
2022-08-18T14:28:26.271Z,28.36
2022-08-18T14:33:49.753Z,28.25
2022-08-18T14:38:52.030Z,28.27
2022-08-18T14:44:12.238Z,28.40
2022-08-18T14:49:15.409Z,28.28
2022-08-18T14:54:31.850Z,28.35
2022-08-18T14:59:34.548Z,28.19
2022-08-18T15:04:55.916Z,28.15
2022-08-18T15:10:15.084Z,28.17
2022-08-18T15:15:18.814Z,28.14
2022-08-18T15:20:29.436Z,28.20
2022-08-18T15:25:51.192Z,28.07
2022-08-18T15:31:16.791Z,28.11
2022-08-18T15:36:16.604Z,28.14
2022-08-18T15:41:43.807Z,28.17
2022-08-18T15:46:53.333Z,28.10
2022-08-18T15:51:55.118Z,28.08
2022-08-18T15:56:58.816Z,27.94
2022-08-18T16:02:00.955Z,27.87
2022-08-18T16:07:02.608Z,27.84
2022-08-18T16:12:04.542Z,27.78
2022-08-18T16:17:09.409Z,27.74
2022-08-18T16:22:19.685Z,27.83
2022-08-18T16:27:23.445Z,27.77
2022-08-18T16:32:25.110Z,27.76
2022-08-18T16:37:27.220Z,27.59
2022-08-18T16:42:32.614Z,27.43
2022-08-18T16:47:38.962Z,27.54
2022-08-18T16:52:40.935Z,27.54
2022-08-18T16:58:02.370Z,27.50
2022-08-18T17:03:24.293Z,27.47
2022-08-18T17:08:26.151Z,27.37
2022-08-18T17:13:27.901Z,27.35
2022-08-18T17:18:30.530Z,27.29
2022-08-18T17:23:32.718Z,27.26
2022-08-18T17:28:50.582Z,27.19
2022-08-18T17:33:57.647Z,27.16
2022-08-18T17:39:02.255Z,27.11
2022-08-18T17:44:06.739Z,27.04
2022-08-18T17:49:54.416Z,27.01
2022-08-18T17:55:20.366Z,26.95
2022-08-18T18:00:22.835Z,26.94
2022-08-18T18:05:32.978Z,26.87
2022-08-18T18:10:51.005Z,26.82
2022-08-18T18:16:23.339Z,26.78
2022-08-18T18:21:53.596Z,26.75
2022-08-18T18:26:48.211Z,26.60
2022-08-18T18:31:57.778Z,26.36
2022-08-18T18:37:01.519Z,26.21
2022-08-18T18:42:17.638Z,26.00
2022-08-18T18:47:45.666Z,25.96
2022-08-18T18:53:05.842Z,25.88
2022-08-18T18:58:45.663Z,25.77
2022-08-18T19:03:53.881Z,25.62
2022-08-18T19:09:01.378Z,25.59
2022-08-18T19:14:07.444Z,25.56
2022-08-18T19:19:35.477Z,25.39
2022-08-18T19:24:45.533Z,25.54
2022-08-18T19:29:47.568Z,25.48
2022-08-18T19:34:51.345Z,25.40
2022-08-18T19:40:07.845Z,25.34
2022-08-18T19:45:25.400Z,25.24
2022-08-18T19:50:38.555Z,25.43
2022-08-18T19:55:47.407Z,25.30
2022-08-18T20:00:56.873Z,25.17
2022-08-18T20:06:34.787Z,25.12
2022-08-18T20:11:42.041Z,25.02
2022-08-18T20:17:09.537Z,24.95
2022-08-18T20:22:28.508Z,24.83
2022-08-18T20:27:35.736Z,24.81
2022-08-18T20:32:37.716Z,24.85
2022-08-18T20:37:42.631Z,24.78
2022-08-18T20:42:51.510Z,24.69
2022-08-18T20:48:10.619Z,24.76
2022-08-18T20:53:50.395Z,24.69
2022-08-18T20:59:04.013Z,24.66
2022-08-18T21:04:10.662Z,24.74
2022-08-18T21:09:17.579Z,24.67
2022-08-18T21:14:29.996Z,24.66
2022-08-18T21:19:31.721Z,24.57
2022-08-18T21:24:39.060Z,24.71
2022-08-18T21:29:47.538Z,24.66
2022-08-18T21:34:51.547Z,24.56
2022-08-18T21:39:56.570Z,24.55
2022-08-18T21:45:01.064Z,24.54
2022-08-18T21:50:10.654Z,24.45
2022-08-18T21:55:30.089Z,24.44
2022-08-18T22:00:36.262Z,24.31
2022-08-18T22:05:58.924Z,24.41
2022-08-18T22:11:41.843Z,24.32
2022-08-18T22:17:31.438Z,24.33
2022-08-18T22:22:52.685Z,24.22
2022-08-18T22:27:56.930Z,24.28
2022-08-18T22:32:59.517Z,24.18
2022-08-18T22:38:01.591Z,24.18
2022-08-18T22:43:03.206Z,24.14
2022-08-18T22:48:04.907Z,24.07
2022-08-18T22:53:06.517Z,24.04
2022-08-18T22:58:08.210Z,24.03
2022-08-18T23:03:12.358Z,23.95
2022-08-18T23:08:13.962Z,24.02
2022-08-18T23:13:17.057Z,24.00
2022-08-18T23:18:20.570Z,23.80
2022-08-18T23:23:23.856Z,23.81
2022-08-18T23:28:27.165Z,23.82
2022-08-18T23:33:28.822Z,23.72
2022-08-18T23:38:31.814Z,23.68
2022-08-18T23:43:35.927Z,23.64
2022-08-18T23:48:37.753Z,23.66
2022-08-18T23:53:39.644Z,23.65
2022-08-18T23:58:41.230Z,23.70
